Terminal Aerodrome Forecast
Issued by NWS Billings, MT

Home | Current Version | Previous Version | Text Only | Print | Product List | Glossary On
Versions: 1 2 3 4 5 6 7 8 9 10 11 12 13 14 15 16 17
000
FTUS45 KBYZ 090538
TAFBIL
TAF
KBIL 090538Z 0906/1006 03008KT P6SM OVC120
     FM090900 05007KT 6SM -SN OVC040
     FM091300 06007KT 3SM -SN SCT010 OVC020
     FM091900 07009KT P6SM OVC050=

USA.gov is the U.S. government's official web portal to all federal, state and local government web resources and services.